sensor_id;sensor_type;location;lat;lon;timestamp;P1;durP1;ratioP1;P2;durP2;ratioP2
24787;SDS011;12883;52.662;5.196;2022-09-09T00:04:28;4.75;;;4.75;;
24787;SDS011;12883;52.662;5.196;2022-09-09T00:09:47;3.67;;;3.67;;
24787;SDS011;12883;52.662;5.196;2022-09-09T00:15:14;3.40;;;3.40;;
24787;SDS011;12883;52.662;5.196;2022-09-09T00:20:34;2.90;;;2.90;;
24787;SDS011;12883;52.662;5.196;2022-09-09T00:23:16;2.17;;;2.17;;
24787;SDS011;12883;52.662;5.196;2022-09-09T00:28:27;2.47;;;2.47;;
24787;SDS011;12883;52.662;5.196;2022-09-09T00:31:20;2.05;;;2.05;;
24787;SDS011;12883;52.662;5.196;2022-09-09T00:33:48;1.98;;;1.98;;
24787;SDS011;12883;52.662;5.196;2022-09-09T00:36:17;1.65;;;1.65;;
24787;SDS011;12883;52.662;5.196;2022-09-09T00:38:47;1.50;;;1.50;;
24787;SDS011;12883;52.662;5.196;2022-09-09T00:44:16;1.48;;;1.48;;
24787;SDS011;12883;52.662;5.196;2022-09-09T00:49:27;2.00;;;2.00;;
24787;SDS011;12883;52.662;5.196;2022-09-09T00:52:01;1.88;;;1.88;;
24787;SDS011;12883;52.662;5.196;2022-09-09T00:54:47;2.05;;;2.05;;
24787;SDS011;12883;52.662;5.196;2022-09-09T00:57:32;1.98;;;1.98;;
24787;SDS011;12883;52.662;5.196;2022-09-09T01:05:30;2.90;;;2.90;;
24787;SDS011;12883;52.662;5.196;2022-09-09T01:08:05;2.78;;;2.78;;
24787;SDS011;12883;52.662;5.196;2022-09-09T01:10:50;3.28;;;3.28;;
24787;SDS011;12883;52.662;5.196;2022-09-09T01:13:25;2.90;;;2.90;;
24787;SDS011;12883;52.662;5.196;2022-09-09T01:15:55;3.58;;;3.58;;
24787;SDS011;12883;52.662;5.196;2022-09-09T01:18:26;4.05;;;4.05;;
24787;SDS011;12883;52.662;5.196;2022-09-09T01:21:00;3.63;;;3.63;;
24787;SDS011;12883;52.662;5.196;2022-09-09T01:26:28;4.32;;;4.32;;
24787;SDS011;12883;52.662;5.196;2022-09-09T01:28:54;5.60;;;5.60;;
24787;SDS011;12883;52.662;5.196;2022-09-09T01:31:22;5.20;;;5.20;;
24787;SDS011;12883;52.662;5.196;2022-09-09T01:33:52;5.95;;;5.95;;
24787;SDS011;12883;52.662;5.196;2022-09-09T01:38:52;6.45;;;6.45;;
24787;SDS011;12883;52.662;5.196;2022-09-09T01:41:18;6.82;;;6.82;;
24787;SDS011;12883;52.662;5.196;2022-09-09T01:43:44;6.93;;;6.93;;
24787;SDS011;12883;52.662;5.196;2022-09-09T01:46:09;7.45;;;7.45;;
24787;SDS011;12883;52.662;5.196;2022-09-09T01:48:36;7.95;;;7.95;;
24787;SDS011;12883;52.662;5.196;2022-09-09T01:51:02;8.02;;;8.02;;
24787;SDS011;12883;52.662;5.196;2022-09-09T01:53:28;8.38;;;8.38;;
24787;SDS011;12883;52.662;5.196;2022-09-09T01:58:29;8.77;;;8.77;;
24787;SDS011;12883;52.662;5.196;2022-09-09T02:01:02;10.45;;;10.45;;
24787;SDS011;12883;52.662;5.196;2022-09-09T02:03:38;10.77;;;10.77;;
24787;SDS011;12883;52.662;5.196;2022-09-09T02:08:50;11.85;;;11.85;;
24787;SDS011;12883;52.662;5.196;2022-09-09T02:11:18;11.15;;;11.15;;
24787;SDS011;12883;52.662;5.196;2022-09-09T02:13:47;12.50;;;12.50;;
24787;SDS011;12883;52.662;5.196;2022-09-09T02:19:21;12.15;;;12.15;;
24787;SDS011;12883;52.662;5.196;2022-09-09T02:21:39;12.07;;;12.07;;
24787;SDS011;12883;52.662;5.196;2022-09-09T02:24:07;12.60;;;12.60;;
24787;SDS011;12883;52.662;5.196;2022-09-09T02:26:35;13.10;;;13.10;;
24787;SDS011;12883;52.662;5.196;2022-09-09T02:29:05;13.60;;;13.60;;
24787;SDS011;12883;52.662;5.196;2022-09-09T02:31:36;13.65;;;13.65;;
24787;SDS011;12883;52.662;5.196;2022-09-09T02:34:03;13.73;;;13.73;;
24787;SDS011;12883;52.662;5.196;2022-09-09T02:36:32;14.05;;;14.05;;
24787;SDS011;12883;52.662;5.196;2022-09-09T02:39:00;13.85;;;13.85;;
24787;SDS011;12883;52.662;5.196;2022-09-09T02:41:27;15.57;;;15.48;;
24787;SDS011;12883;52.662;5.196;2022-09-09T02:43:57;15.20;;;15.20;;
24787;SDS011;12883;52.662;5.196;2022-09-09T02:49:09;16.95;;;16.85;;
24787;SDS011;12883;52.662;5.196;2022-09-09T02:54:17;17.15;;;17.05;;
24787;SDS011;12883;52.662;5.196;2022-09-09T02:56:49;17.10;;;17.10;;
24787;SDS011;12883;52.662;5.196;2022-09-09T02:59:19;17.60;;;17.50;;
24787;SDS011;12883;52.662;5.196;2022-09-09T03:01:45;17.77;;;17.67;;
24787;SDS011;12883;52.662;5.196;2022-09-09T03:04:10;17.85;;;17.75;;
24787;SDS011;12883;52.662;5.196;2022-09-09T03:06:35;17.15;;;17.05;;
24787;SDS011;12883;52.662;5.196;2022-09-09T03:09:01;15.40;;;15.40;;
24787;SDS011;12883;52.662;5.196;2022-09-09T03:11:27;16.02;;;16.02;;
24787;SDS011;12883;52.662;5.196;2022-09-09T03:13:53;16.50;;;16.40;;
24787;SDS011;12883;52.662;5.196;2022-09-09T03:16:20;15.30;;;15.20;;
24787;SDS011;12883;52.662;5.196;2022-09-09T03:18:47;15.20;;;15.20;;
24787;SDS011;12883;52.662;5.196;2022-09-09T03:21:12;15.15;;;15.05;;
24787;SDS011;12883;52.662;5.196;2022-09-09T03:23:37;13.38;;;13.38;;
24787;SDS011;12883;52.662;5.196;2022-09-09T03:26:03;12.80;;;12.80;;
24787;SDS011;12883;52.662;5.196;2022-09-09T03:28:28;12.80;;;12.80;;
24787;SDS011;12883;52.662;5.196;2022-09-09T03:31:05;11.32;;;11.32;;
24787;SDS011;12883;52.662;5.196;2022-09-09T03:33:31;10.95;;;10.95;;
24787;SDS011;12883;52.662;5.196;2022-09-09T03:35:56;12.38;;;12.38;;
24787;SDS011;12883;52.662;5.196;2022-09-09T03:38:23;11.48;;;11.48;;
24787;SDS011;12883;52.662;5.196;2022-09-09T03:40:49;10.80;;;10.80;;
24787;SDS011;12883;52.662;5.196;2022-09-09T03:43:16;10.93;;;10.93;;
24787;SDS011;12883;52.662;5.196;2022-09-09T03:45:45;11.15;;;11.15;;
24787;SDS011;12883;52.662;5.196;2022-09-09T03:48:12;9.65;;;9.65;;
24787;SDS011;12883;52.662;5.196;2022-09-09T03:50:38;9.70;;;9.70;;
24787;SDS011;12883;52.662;5.196;2022-09-09T03:53:04;10.23;;;10.23;;
24787;SDS011;12883;52.662;5.196;2022-09-09T03:55:31;8.93;;;8.93;;
24787;SDS011;12883;52.662;5.196;2022-09-09T03:57:57;7.60;;;7.60;;
24787;SDS011;12883;52.662;5.196;2022-09-09T04:00:22;7.20;;;7.20;;
24787;SDS011;12883;52.662;5.196;2022-09-09T04:02:49;6.85;;;6.85;;
24787;SDS011;12883;52.662;5.196;2022-09-09T04:05:14;6.80;;;6.80;;
24787;SDS011;12883;52.662;5.196;2022-09-09T04:07:40;8.00;;;8.00;;
24787;SDS011;12883;52.662;5.196;2022-09-09T04:10:06;8.35;;;8.35;;
24787;SDS011;12883;52.662;5.196;2022-09-09T04:12:32;7.75;;;7.75;;
24787;SDS011;12883;52.662;5.196;2022-09-09T04:14:57;8.50;;;8.50;;
24787;SDS011;12883;52.662;5.196;2022-09-09T04:17:22;8.00;;;8.00;;
24787;SDS011;12883;52.662;5.196;2022-09-09T04:19:48;7.93;;;7.93;;
24787;SDS011;12883;52.662;5.196;2022-09-09T04:22:13;8.55;;;8.55;;
24787;SDS011;12883;52.662;5.196;2022-09-09T04:24:39;8.40;;;8.40;;
24787;SDS011;12883;52.662;5.196;2022-09-09T04:27:04;8.18;;;8.18;;
24787;SDS011;12883;52.662;5.196;2022-09-09T04:29:29;8.25;;;8.25;;
24787;SDS011;12883;52.662;5.196;2022-09-09T04:31:55;8.35;;;8.35;;
24787;SDS011;12883;52.662;5.196;2022-09-09T04:34:20;8.15;;;8.15;;
24787;SDS011;12883;52.662;5.196;2022-09-09T04:36:46;9.57;;;9.57;;
24787;SDS011;12883;52.662;5.196;2022-09-09T04:39:11;9.88;;;9.88;;
24787;SDS011;12883;52.662;5.196;2022-09-09T04:41:36;9.85;;;9.85;;
24787;SDS011;12883;52.662;5.196;2022-09-09T04:44:02;9.57;;;9.57;;
24787;SDS011;12883;52.662;5.196;2022-09-09T04:46:28;10.85;;;10.85;;
24787;SDS011;12883;52.662;5.196;2022-09-09T04:48:54;9.60;;;9.60;;
24787;SDS011;12883;52.662;5.196;2022-09-09T04:51:19;9.35;;;9.35;;
24787;SDS011;12883;52.662;5.196;2022-09-09T04:53:44;8.48;;;8.48;;
24787;SDS011;12883;52.662;5.196;2022-09-09T04:56:15;8.82;;;8.82;;
24787;SDS011;12883;52.662;5.196;2022-09-09T04:58:41;9.30;;;9.30;;
24787;SDS011;12883;52.662;5.196;2022-09-09T05:03:38;8.80;;;8.80;;
24787;SDS011;12883;52.662;5.196;2022-09-09T05:06:07;8.38;;;8.38;;
24787;SDS011;12883;52.662;5.196;2022-09-09T05:08:35;7.78;;;7.78;;
24787;SDS011;12883;52.662;5.196;2022-09-09T05:11:01;7.43;;;7.43;;
24787;SDS011;12883;52.662;5.196;2022-09-09T05:13:26;6.90;;;6.90;;
24787;SDS011;12883;52.662;5.196;2022-09-09T05:15:53;7.65;;;7.65;;
24787;SDS011;12883;52.662;5.196;2022-09-09T05:18:19;7.82;;;7.82;;
24787;SDS011;12883;52.662;5.196;2022-09-09T05:20:45;7.60;;;7.60;;
24787;SDS011;12883;52.662;5.196;2022-09-09T05:23:10;7.13;;;7.13;;
24787;SDS011;12883;52.662;5.196;2022-09-09T05:25:38;7.13;;;7.13;;
24787;SDS011;12883;52.662;5.196;2022-09-09T05:28:05;7.05;;;7.05;;
24787;SDS011;12883;52.662;5.196;2022-09-09T05:30:32;7.75;;;7.75;;
24787;SDS011;12883;52.662;5.196;2022-09-09T05:32:57;6.82;;;6.82;;
24787;SDS011;12883;52.662;5.196;2022-09-09T05:35:23;6.20;;;6.20;;
24787;SDS011;12883;52.662;5.196;2022-09-09T05:37:48;5.80;;;5.80;;
24787;SDS011;12883;52.662;5.196;2022-09-09T05:40:14;5.80;;;5.80;;
24787;SDS011;12883;52.662;5.196;2022-09-09T05:42:39;5.55;;;5.55;;
24787;SDS011;12883;52.662;5.196;2022-09-09T05:45:06;4.80;;;4.80;;
24787;SDS011;12883;52.662;5.196;2022-09-09T05:47:32;5.10;;;5.10;;
24787;SDS011;12883;52.662;5.196;2022-09-09T05:49:58;5.23;;;5.23;;
24787;SDS011;12883;52.662;5.196;2022-09-09T05:52:24;5.35;;;5.35;;
24787;SDS011;12883;52.662;5.196;2022-09-09T05:54:51;5.17;;;5.17;;
24787;SDS011;12883;52.662;5.196;2022-09-09T05:57:16;5.10;;;5.10;;
24787;SDS011;12883;52.662;5.196;2022-09-09T05:59:42;5.13;;;5.13;;
24787;SDS011;12883;52.662;5.196;2022-09-09T06:02:08;4.57;;;4.57;;
24787;SDS011;12883;52.662;5.196;2022-09-09T06:04:34;4.85;;;4.85;;
24787;SDS011;12883;52.662;5.196;2022-09-09T06:06:59;4.65;;;4.65;;
24787;SDS011;12883;52.662;5.196;2022-09-09T06:09:25;4.82;;;4.82;;
24787;SDS011;12883;52.662;5.196;2022-09-09T06:11:50;4.22;;;4.22;;
24787;SDS011;12883;52.662;5.196;2022-09-09T06:14:15;4.80;;;4.80;;
24787;SDS011;12883;52.662;5.196;2022-09-09T06:16:42;4.32;;;4.32;;
24787;SDS011;12883;52.662;5.196;2022-09-09T06:19:09;5.15;;;5.15;;
24787;SDS011;12883;52.662;5.196;2022-09-09T06:21:35;4.32;;;4.32;;
24787;SDS011;12883;52.662;5.196;2022-09-09T06:24:02;4.57;;;4.57;;
24787;SDS011;12883;52.662;5.196;2022-09-09T06:26:31;4.65;;;4.65;;
24787;SDS011;12883;52.662;5.196;2022-09-09T06:29:00;4.30;;;4.30;;
24787;SDS011;12883;52.662;5.196;2022-09-09T06:31:28;4.93;;;4.93;;
24787;SDS011;12883;52.662;5.196;2022-09-09T06:33:55;5.30;;;5.30;;
24787;SDS011;12883;52.662;5.196;2022-09-09T06:36:22;4.78;;;4.78;;
24787;SDS011;12883;52.662;5.196;2022-09-09T06:38:56;4.40;;;4.40;;
24787;SDS011;12883;52.662;5.196;2022-09-09T06:41:22;4.45;;;4.45;;
24787;SDS011;12883;52.662;5.196;2022-09-09T06:43:51;4.95;;;4.95;;
24787;SDS011;12883;52.662;5.196;2022-09-09T06:48:43;5.15;;;5.15;;
24787;SDS011;12883;52.662;5.196;2022-09-09T06:51:11;4.70;;;4.70;;
24787;SDS011;12883;52.662;5.196;2022-09-09T06:53:41;3.72;;;3.72;;
24787;SDS011;12883;52.662;5.196;2022-09-09T06:56:26;5.13;;;5.13;;
24787;SDS011;12883;52.662;5.196;2022-09-09T06:58:59;4.65;;;4.65;;
24787;SDS011;12883;52.662;5.196;2022-09-09T07:01:32;4.72;;;4.72;;
24787;SDS011;12883;52.662;5.196;2022-09-09T07:03:59;4.60;;;4.60;;
24787;SDS011;12883;52.662;5.196;2022-09-09T07:06:26;4.68;;;4.68;;
24787;SDS011;12883;52.662;5.196;2022-09-09T07:08:57;4.28;;;4.28;;
24787;SDS011;12883;52.662;5.196;2022-09-09T07:11:25;4.97;;;4.97;;
24787;SDS011;12883;52.662;5.196;2022-09-09T07:13:52;4.28;;;4.28;;
24787;SDS011;12883;52.662;5.196;2022-09-09T07:16:19;4.68;;;4.68;;
24787;SDS011;12883;52.662;5.196;2022-09-09T07:18:46;4.30;;;4.30;;
24787;SDS011;12883;52.662;5.196;2022-09-09T07:21:12;4.10;;;4.10;;
24787;SDS011;12883;52.662;5.196;2022-09-09T07:23:39;4.15;;;4.15;;
24787;SDS011;12883;52.662;5.196;2022-09-09T07:26:12;3.80;;;3.80;;
24787;SDS011;12883;52.662;5.196;2022-09-09T07:28:39;4.30;;;4.30;;
24787;SDS011;12883;52.662;5.196;2022-09-09T07:31:05;4.38;;;4.38;;
24787;SDS011;12883;52.662;5.196;2022-09-09T07:33:32;4.03;;;4.03;;
24787;SDS011;12883;52.662;5.196;2022-09-09T07:36:09;4.00;;;4.00;;
24787;SDS011;12883;52.662;5.196;2022-09-09T07:38:40;3.72;;;3.72;;
24787;SDS011;12883;52.662;5.196;2022-09-09T07:41:11;3.60;;;3.60;;
24787;SDS011;12883;52.662;5.196;2022-09-09T07:43:41;3.97;;;3.97;;
24787;SDS011;12883;52.662;5.196;2022-09-09T07:46:09;3.97;;;3.97;;
24787;SDS011;12883;52.662;5.196;2022-09-09T07:48:35;3.78;;;3.78;;
24787;SDS011;12883;52.662;5.196;2022-09-09T07:51:07;3.92;;;3.92;;
24787;SDS011;12883;52.662;5.196;2022-09-09T07:53:36;4.07;;;4.07;;
24787;SDS011;12883;52.662;5.196;2022-09-09T07:56:07;3.58;;;3.58;;
24787;SDS011;12883;52.662;5.196;2022-09-09T07:58:34;4.40;;;4.40;;
24787;SDS011;12883;52.662;5.196;2022-09-09T08:01:10;4.95;;;4.95;;
24787;SDS011;12883;52.662;5.196;2022-09-09T08:03:38;4.47;;;4.47;;
24787;SDS011;12883;52.662;5.196;2022-09-09T08:06:04;4.20;;;4.20;;
24787;SDS011;12883;52.662;5.196;2022-09-09T08:08:35;3.95;;;3.95;;
24787;SDS011;12883;52.662;5.196;2022-09-09T08:11:02;4.15;;;4.15;;
24787;SDS011;12883;52.662;5.196;2022-09-09T08:13:29;4.63;;;4.63;;
24787;SDS011;12883;52.662;5.196;2022-09-09T08:16:02;4.57;;;4.57;;
24787;SDS011;12883;52.662;5.196;2022-09-09T08:18:29;4.38;;;4.38;;
24787;SDS011;12883;52.662;5.196;2022-09-09T08:20:54;3.75;;;3.75;;
24787;SDS011;12883;52.662;5.196;2022-09-09T08:23:20;4.97;;;4.97;;
24787;SDS011;12883;52.662;5.196;2022-09-09T08:25:46;4.28;;;4.28;;
24787;SDS011;12883;52.662;5.196;2022-09-09T08:28:13;4.20;;;4.20;;
24787;SDS011;12883;52.662;5.196;2022-09-09T08:30:39;4.68;;;4.68;;
24787;SDS011;12883;52.662;5.196;2022-09-09T08:33:04;4.40;;;4.40;;
24787;SDS011;12883;52.662;5.196;2022-09-09T08:35:30;4.45;;;4.45;;
24787;SDS011;12883;52.662;5.196;2022-09-09T08:37:57;4.35;;;4.35;;
24787;SDS011;12883;52.662;5.196;2022-09-09T08:40:25;3.88;;;3.88;;
24787;SDS011;12883;52.662;5.196;2022-09-09T08:42:57;4.03;;;4.03;;
24787;SDS011;12883;52.662;5.196;2022-09-09T08:45:48;3.83;;;3.83;;
24787;SDS011;12883;52.662;5.196;2022-09-09T08:48:44;3.72;;;3.72;;
24787;SDS011;12883;52.662;5.196;2022-09-09T08:51:17;3.80;;;3.80;;
24787;SDS011;12883;52.662;5.196;2022-09-09T08:53:44;3.28;;;3.28;;
24787;SDS011;12883;52.662;5.196;2022-09-09T08:56:16;3.72;;;3.72;;
24787;SDS011;12883;52.662;5.196;2022-09-09T08:58:50;3.92;;;3.92;;
24787;SDS011;12883;52.662;5.196;2022-09-09T09:07:00;3.40;;;3.40;;
24787;SDS011;12883;52.662;5.196;2022-09-09T09:12:25;4.03;;;4.03;;
24787;SDS011;12883;52.662;5.196;2022-09-09T09:14:54;3.92;;;3.92;;
24787;SDS011;12883;52.662;5.196;2022-09-09T09:17:24;4.45;;;4.45;;
24787;SDS011;12883;52.662;5.196;2022-09-09T09:19:52;4.25;;;4.25;;
24787;SDS011;12883;52.662;5.196;2022-09-09T09:24:56;3.75;;;3.75;;
24787;SDS011;12883;52.662;5.196;2022-09-09T09:28:02;3.70;;;3.70;;
24787;SDS011;12883;52.662;5.196;2022-09-09T09:30:36;3.83;;;3.83;;
24787;SDS011;12883;52.662;5.196;2022-09-09T09:33:10;3.88;;;3.88;;
24787;SDS011;12883;52.662;5.196;2022-09-09T09:35:45;3.33;;;3.33;;
24787;SDS011;12883;52.662;5.196;2022-09-09T09:38:16;3.40;;;3.40;;
24787;SDS011;12883;52.662;5.196;2022-09-09T09:40:53;3.17;;;3.17;;
24787;SDS011;12883;52.662;5.196;2022-09-09T09:43:24;3.20;;;3.20;;
24787;SDS011;12883;52.662;5.196;2022-09-09T09:46:00;3.65;;;3.65;;
24787;SDS011;12883;52.662;5.196;2022-09-09T09:48:29;3.63;;;3.63;;
24787;SDS011;12883;52.662;5.196;2022-09-09T09:50:59;3.75;;;3.75;;
24787;SDS011;12883;52.662;5.196;2022-09-09T09:53:31;3.22;;;3.22;;
24787;SDS011;12883;52.662;5.196;2022-09-09T09:56:05;3.10;;;3.10;;
24787;SDS011;12883;52.662;5.196;2022-09-09T10:01:20;3.10;;;3.10;;
24787;SDS011;12883;52.662;5.196;2022-09-09T10:04:01;2.95;;;2.95;;
24787;SDS011;12883;52.662;5.196;2022-09-09T10:06:48;3.35;;;3.35;;
24787;SDS011;12883;52.662;5.196;2022-09-09T10:37:15;2.97;;;2.97;;
24787;SDS011;12883;52.662;5.196;2022-09-09T10:40:02;3.13;;;3.13;;
24787;SDS011;12883;52.662;5.196;2022-09-09T10:42:43;3.78;;;3.78;;
24787;SDS011;12883;52.662;5.196;2022-09-09T10:45:23;2.70;;;2.70;;
24787;SDS011;12883;52.662;5.196;2022-09-09T10:48:48;3.50;;;3.50;;
24787;SDS011;12883;52.662;5.196;2022-09-09T10:51:40;3.00;;;3.00;;
24787;SDS011;12883;52.662;5.196;2022-09-09T10:54:08;2.58;;;2.58;;
24787;SDS011;12883;52.662;5.196;2022-09-09T10:56:42;2.95;;;2.95;;
24787;SDS011;12883;52.662;5.196;2022-09-09T10:59:20;2.50;;;2.50;;
24787;SDS011;12883;52.662;5.196;2022-09-09T11:04:27;2.65;;;2.65;;
24787;SDS011;12883;52.662;5.196;2022-09-09T11:06:59;2.45;;;2.45;;
24787;SDS011;12883;52.662;5.196;2022-09-09T11:09:31;2.53;;;2.53;;
24787;SDS011;12883;52.662;5.196;2022-09-09T11:12:15;2.53;;;2.53;;
24787;SDS011;12883;52.662;5.196;2022-09-09T11:14:45;2.47;;;2.47;;
24787;SDS011;12883;52.662;5.196;2022-09-09T11:17:20;2.60;;;2.60;;
24787;SDS011;12883;52.662;5.196;2022-09-09T11:19:49;2.90;;;2.90;;
24787;SDS011;12883;52.662;5.196;2022-09-09T11:42:04;2.20;;;2.20;;
24787;SDS011;12883;52.662;5.196;2022-09-09T11:44:41;2.38;;;2.38;;
24787;SDS011;12883;52.662;5.196;2022-09-09T11:52:41;2.10;;;2.10;;
24787;SDS011;12883;52.662;5.196;2022-09-09T11:58:01;2.38;;;2.38;;
24787;SDS011;12883;52.662;5.196;2022-09-09T12:00:29;2.25;;;2.25;;
24787;SDS011;12883;52.662;5.196;2022-09-09T12:02:58;2.83;;;2.83;;
24787;SDS011;12883;52.662;5.196;2022-09-09T12:05:23;2.33;;;2.33;;
24787;SDS011;12883;52.662;5.196;2022-09-09T12:08:01;2.22;;;2.22;;
24787;SDS011;12883;52.662;5.196;2022-09-09T12:10:35;2.00;;;2.00;;
24787;SDS011;12883;52.662;5.196;2022-09-09T12:13:19;1.85;;;1.85;;
24787;SDS011;12883;52.662;5.196;2022-09-09T12:15:56;2.33;;;2.33;;
24787;SDS011;12883;52.662;5.196;2022-09-09T12:34:30;1.90;;;1.90;;
24787;SDS011;12883;52.662;5.196;2022-09-09T12:37:02;2.15;;;2.15;;
24787;SDS011;12883;52.662;5.196;2022-09-09T12:39:43;1.90;;;1.90;;
24787;SDS011;12883;52.662;5.196;2022-09-09T12:42:19;2.03;;;2.03;;
24787;SDS011;12883;52.662;5.196;2022-09-09T12:47:18;1.58;;;1.58;;
24787;SDS011;12883;52.662;5.196;2022-09-09T12:49:46;2.22;;;2.22;;
24787;SDS011;12883;52.662;5.196;2022-09-09T12:52:23;2.55;;;2.55;;
24787;SDS011;12883;52.662;5.196;2022-09-09T12:55:03;3.03;;;3.03;;
24787;SDS011;12883;52.662;5.196;2022-09-09T12:57:35;2.53;;;2.53;;
24787;SDS011;12883;52.662;5.196;2022-09-09T13:00:06;2.47;;;2.47;;
24787;SDS011;12883;52.662;5.196;2022-09-09T13:03:16;2.58;;;2.58;;
24787;SDS011;12883;52.662;5.196;2022-09-09T13:05:42;2.65;;;2.65;;
24787;SDS011;12883;52.662;5.196;2022-09-09T13:08:11;2.13;;;2.13;;
24787;SDS011;12883;52.662;5.196;2022-09-09T13:10:46;2.10;;;2.10;;
24787;SDS011;12883;52.662;5.196;2022-09-09T13:13:19;2.00;;;2.00;;
24787;SDS011;12883;52.662;5.196;2022-09-09T13:15:51;1.98;;;1.98;;
24787;SDS011;12883;52.662;5.196;2022-09-09T13:18:22;1.80;;;1.80;;
24787;SDS011;12883;52.662;5.196;2022-09-09T13:20:50;2.78;;;2.78;;
24787;SDS011;12883;52.662;5.196;2022-09-09T13:23:16;2.67;;;2.67;;
24787;SDS011;12883;52.662;5.196;2022-09-09T13:25:55;2.90;;;2.90;;
24787;SDS011;12883;52.662;5.196;2022-09-09T13:28:23;3.38;;;3.38;;
24787;SDS011;12883;52.662;5.196;2022-09-09T13:31:35;3.88;;;3.88;;
24787;SDS011;12883;52.662;5.196;2022-09-09T13:34:28;3.17;;;3.17;;
24787;SDS011;12883;52.662;5.196;2022-09-09T13:37:02;3.50;;;3.50;;
24787;SDS011;12883;52.662;5.196;2022-09-09T13:39:35;3.15;;;3.15;;
24787;SDS011;12883;52.662;5.196;2022-09-09T13:42:02;3.92;;;3.92;;
24787;SDS011;12883;52.662;5.196;2022-09-09T13:44:30;3.35;;;3.35;;
24787;SDS011;12883;52.662;5.196;2022-09-09T13:47:21;2.72;;;2.72;;
24787;SDS011;12883;52.662;5.196;2022-09-09T13:49:47;3.42;;;3.42;;
24787;SDS011;12883;52.662;5.196;2022-09-09T13:52:13;2.92;;;2.92;;
24787;SDS011;12883;52.662;5.196;2022-09-09T13:54:41;2.58;;;2.58;;
24787;SDS011;12883;52.662;5.196;2022-09-09T13:57:18;2.40;;;2.40;;
24787;SDS011;12883;52.662;5.196;2022-09-09T13:59:46;3.10;;;3.10;;
24787;SDS011;12883;52.662;5.196;2022-09-09T14:02:12;2.65;;;2.65;;
24787;SDS011;12883;52.662;5.196;2022-09-09T14:04:38;2.67;;;2.67;;
24787;SDS011;12883;52.662;5.196;2022-09-09T14:07:07;2.33;;;2.33;;
24787;SDS011;12883;52.662;5.196;2022-09-09T14:09:36;2.30;;;2.30;;
24787;SDS011;12883;52.662;5.196;2022-09-09T14:12:02;2.58;;;2.58;;
24787;SDS011;12883;52.662;5.196;2022-09-09T14:14:27;2.58;;;2.58;;
24787;SDS011;12883;52.662;5.196;2022-09-09T14:16:52;3.10;;;3.10;;
24787;SDS011;12883;52.662;5.196;2022-09-09T14:19:18;2.85;;;2.85;;
24787;SDS011;12883;52.662;5.196;2022-09-09T14:21:43;1.92;;;1.92;;
24787;SDS011;12883;52.662;5.196;2022-09-09T14:24:08;1.20;;;1.20;;
24787;SDS011;12883;52.662;5.196;2022-09-09T14:26:34;0.90;;;0.90;;
24787;SDS011;12883;52.662;5.196;2022-09-09T14:28:59;1.08;;;1.08;;
24787;SDS011;12883;52.662;5.196;2022-09-09T14:31:26;0.93;;;0.93;;
24787;SDS011;12883;52.662;5.196;2022-09-09T14:33:51;1.08;;;1.08;;
24787;SDS011;12883;52.662;5.196;2022-09-09T14:36:17;1.20;;;1.20;;
24787;SDS011;12883;52.662;5.196;2022-09-09T14:38:43;1.48;;;1.48;;
24787;SDS011;12883;52.662;5.196;2022-09-09T14:41:12;1.23;;;1.23;;
24787;SDS011;12883;52.662;5.196;2022-09-09T14:43:41;1.60;;;1.60;;
24787;SDS011;12883;52.662;5.196;2022-09-09T14:46:07;1.65;;;1.65;;
24787;SDS011;12883;52.662;5.196;2022-09-09T14:48:34;1.70;;;1.70;;
24787;SDS011;12883;52.662;5.196;2022-09-09T14:51:13;2.00;;;2.00;;
24787;SDS011;12883;52.662;5.196;2022-09-09T14:53:41;2.22;;;2.22;;
24787;SDS011;12883;52.662;5.196;2022-09-09T14:56:14;2.30;;;2.30;;
24787;SDS011;12883;52.662;5.196;2022-09-09T14:58:41;2.63;;;2.63;;
24787;SDS011;12883;52.662;5.196;2022-09-09T15:01:08;2.53;;;2.53;;
24787;SDS011;12883;52.662;5.196;2022-09-09T15:03:35;3.38;;;3.38;;
24787;SDS011;12883;52.662;5.196;2022-09-09T15:06:08;2.00;;;2.00;;
24787;SDS011;12883;52.662;5.196;2022-09-09T15:08:39;2.60;;;2.60;;
24787;SDS011;12883;52.662;5.196;2022-09-09T15:11:06;2.60;;;2.60;;
24787;SDS011;12883;52.662;5.196;2022-09-09T15:13:32;2.17;;;2.17;;
24787;SDS011;12883;52.662;5.196;2022-09-09T15:16:09;1.92;;;1.92;;
24787;SDS011;12883;52.662;5.196;2022-09-09T15:18:34;1.63;;;1.63;;
24787;SDS011;12883;52.662;5.196;2022-09-09T15:21:01;2.00;;;2.00;;
24787;SDS011;12883;52.662;5.196;2022-09-09T15:23:31;1.92;;;1.92;;
24787;SDS011;12883;52.662;5.196;2022-09-09T15:25:57;1.67;;;1.67;;
24787;SDS011;12883;52.662;5.196;2022-09-09T15:28:22;1.70;;;1.70;;
24787;SDS011;12883;52.662;5.196;2022-09-09T15:30:48;1.88;;;1.88;;
24787;SDS011;12883;52.662;5.196;2022-09-09T15:33:15;1.70;;;1.70;;
24787;SDS011;12883;52.662;5.196;2022-09-09T15:35:40;2.15;;;2.15;;
24787;SDS011;12883;52.662;5.196;2022-09-09T15:38:06;2.17;;;2.17;;
24787;SDS011;12883;52.662;5.196;2022-09-09T15:40:31;1.90;;;1.90;;
24787;SDS011;12883;52.662;5.196;2022-09-09T15:42:59;2.00;;;2.00;;
24787;SDS011;12883;52.662;5.196;2022-09-09T15:45:25;2.00;;;2.00;;
24787;SDS011;12883;52.662;5.196;2022-09-09T15:47:51;1.92;;;1.92;;
24787;SDS011;12883;52.662;5.196;2022-09-09T15:50:17;2.22;;;2.22;;
24787;SDS011;12883;52.662;5.196;2022-09-09T15:52:42;2.20;;;2.20;;
24787;SDS011;12883;52.662;5.196;2022-09-09T15:55:08;2.40;;;2.40;;
24787;SDS011;12883;52.662;5.196;2022-09-09T15:57:33;2.05;;;2.05;;
24787;SDS011;12883;52.662;5.196;2022-09-09T15:59:59;2.45;;;2.45;;
24787;SDS011;12883;52.662;5.196;2022-09-09T16:02:26;2.28;;;2.28;;
24787;SDS011;12883;52.662;5.196;2022-09-09T16:04:51;2.35;;;2.35;;
24787;SDS011;12883;52.662;5.196;2022-09-09T16:07:17;2.65;;;2.65;;
24787;SDS011;12883;52.662;5.196;2022-09-09T16:09:42;2.60;;;2.60;;
24787;SDS011;12883;52.662;5.196;2022-09-09T16:12:08;2.45;;;2.45;;
24787;SDS011;12883;52.662;5.196;2022-09-09T16:14:38;2.28;;;2.28;;
24787;SDS011;12883;52.662;5.196;2022-09-09T16:17:04;1.60;;;1.60;;
24787;SDS011;12883;52.662;5.196;2022-09-09T16:19:30;2.17;;;2.17;;
24787;SDS011;12883;52.662;5.196;2022-09-09T16:21:59;1.60;;;1.60;;
24787;SDS011;12883;52.662;5.196;2022-09-09T16:24:25;2.10;;;2.10;;
24787;SDS011;12883;52.662;5.196;2022-09-09T16:26:51;1.38;;;1.38;;
24787;SDS011;12883;52.662;5.196;2022-09-09T16:29:18;1.70;;;1.70;;
24787;SDS011;12883;52.662;5.196;2022-09-09T16:31:45;1.65;;;1.65;;
24787;SDS011;12883;52.662;5.196;2022-09-09T16:34:12;1.50;;;1.50;;
24787;SDS011;12883;52.662;5.196;2022-09-09T16:36:38;1.60;;;1.60;;
24787;SDS011;12883;52.662;5.196;2022-09-09T16:39:06;1.23;;;1.23;;
24787;SDS011;12883;52.662;5.196;2022-09-09T16:41:37;1.45;;;1.45;;
24787;SDS011;12883;52.662;5.196;2022-09-09T16:44:04;1.10;;;1.10;;
24787;SDS011;12883;52.662;5.196;2022-09-09T16:46:32;1.52;;;1.52;;
24787;SDS011;12883;52.662;5.196;2022-09-09T16:48:59;1.20;;;1.20;;
24787;SDS011;12883;52.662;5.196;2022-09-09T16:51:36;1.17;;;1.17;;
24787;SDS011;12883;52.662;5.196;2022-09-09T16:54:04;1.50;;;1.50;;
24787;SDS011;12883;52.662;5.196;2022-09-09T16:56:34;1.58;;;1.58;;
24787;SDS011;12883;52.662;5.196;2022-09-09T16:59:07;1.05;;;1.05;;
24787;SDS011;12883;52.662;5.196;2022-09-09T17:01:34;1.40;;;1.40;;
24787;SDS011;12883;52.662;5.196;2022-09-09T17:04:02;1.48;;;1.48;;
24787;SDS011;12883;52.662;5.196;2022-09-09T17:06:30;1.70;;;1.70;;
24787;SDS011;12883;52.662;5.196;2022-09-09T17:08:57;1.92;;;1.92;;
24787;SDS011;12883;52.662;5.196;2022-09-09T17:11:26;1.90;;;1.90;;
24787;SDS011;12883;52.662;5.196;2022-09-09T17:13:51;2.15;;;2.15;;
24787;SDS011;12883;52.662;5.196;2022-09-09T17:16:18;1.30;;;1.30;;
24787;SDS011;12883;52.662;5.196;2022-09-09T17:18:49;1.30;;;1.30;;
24787;SDS011;12883;52.662;5.196;2022-09-09T17:21:16;1.30;;;1.30;;